Time;durP1;ratioP1;P1;durP2;ratioP2;P2;SDS_P1;SDS_P2;PMS_P1;PMS_P2;Temp;Humidity;BMP_temperature;BMP_pressure;BME280_temperature;BME280_humidity;BME280_pressure;Samples;Min_cycle;Max_cycle;Signal;HPM_P1;HPM_P2
2021/08/04 00:00:01;;;;;;;0.15;0.10;;;;;;;;;;5035115;28;20554;-59
2021/08/04 00:02:26;;;;;;;0.80;0.20;;;;;;;;;;5035171;28;20053;-58
2021/08/04 00:04:51;;;;;;;0.47;0.15;;;;;;;;;;5035281;28;20282;-58
2021/08/04 00:07:16;;;;;;;1.05;0.30;;;;;;;;;;5035060;28;20014;-59
2021/08/04 00:09:42;;;;;;;0.20;0.10;;;;;;;;;;5035165;28;20469;-58
2021/08/04 00:12:08;;;;;;;0.20;0.17;;;;;;;;;;5035061;28;20024;-59
2021/08/04 00:14:33;;;;;;;1.30;0.40;;;;;;;;;;5034958;28;20025;-58
2021/08/04 00:16:58;;;;;;;1.67;0.17;;;;;;;;;;5034995;28;20395;-58
2021/08/04 00:19:23;;;;;;;0.50;0.30;;;;;;;;;;5034769;28;20057;-58
2021/08/04 00:21:48;;;;;;;0.40;0.30;;;;;;;;;;5035182;28;20045;-58
2021/08/04 00:24:14;;;;;;;1.20;0.40;;;;;;;;;;5034685;28;20368;-58
2021/08/04 00:26:39;;;;;;;0.63;0.28;;;;;;;;;;5034781;28;20483;-58
2021/08/04 00:29:04;;;;;;;0.30;0.10;;;;;;;;;;5034502;28;20044;-58
2021/08/04 00:31:29;;;;;;;0.47;0.10;;;;;;;;;;5034328;28;20021;-59
2021/08/04 00:33:55;;;;;;;0.20;0.10;;;;;;;;;;5034757;28;20049;-58
2021/08/04 00:36:20;;;;;;;0.70;0.45;;;;;;;;;;5034321;28;20056;-59
2021/08/04 00:38:45;;;;;;;0.17;0.10;;;;;;;;;;5034733;28;20529;-59
2021/08/04 00:41:11;;;;;;;0.28;0.10;;;;;;;;;;5034398;28;20421;-59
2021/08/04 00:43:36;;;;;;;1.05;0.20;;;;;;;;;;5034410;28;20524;-58
2021/08/04 00:46:01;;;;;;;0.30;0.13;;;;;;;;;;5034363;28;20104;-58
2021/08/04 00:48:26;;;;;;;1.50;0.15;;;;;;;;;;5034685;28;20105;-58
2021/08/04 00:50:52;;;;;;;0.85;0.20;;;;;;;;;;5034039;28;20025;-58
2021/08/04 00:53:18;;;;;;;0.45;0.20;;;;;;;;;;5033441;28;20344;-58
2021/08/04 00:55:43;;;;;;;0.75;0.40;;;;;;;;;;5034317;28;20100;-58
2021/08/04 00:58:08;;;;;;;0.30;0.20;;;;;;;;;;5034010;28;20108;-58
2021/08/04 01:00:35;;;;;;;0.43;0.13;;;;;;;;;;5033664;28;20124;-59
2021/08/04 01:03:01;;;;;;;0.47;0.25;;;;;;;;;;5032754;28;20033;-58
2021/08/04 01:05:32;;;;;;;0.98;0.20;;;;;;;;;;5033543;28;20380;-58
2021/08/04 01:08:08;;;;;;;1.05;0.20;;;;;;;;;;5034088;28;20376;-58
2021/08/04 01:10:36;;;;;;;0.65;0.20;;;;;;;;;;5034131;28;20507;-58
2021/08/04 01:13:24;;;;;;;1.23;0.50;;;;;;;;;;5034001;28;20469;-58
2021/08/04 01:15:57;;;;;;;0.65;0.20;;;;;;;;;;5033743;28;20104;-59
2021/08/04 01:18:25;;;;;;;0.40;0.20;;;;;;;;;;5033650;28;20449;-58
2021/08/04 01:20:50;;;;;;;0.68;0.17;;;;;;;;;;5033579;28;20040;-58
2021/08/04 01:23:16;;;;;;;2.03;0.22;;;;;;;;;;5033793;28;20026;-58
2021/08/04 01:25:44;;;;;;;2.78;0.40;;;;;;;;;;5033819;28;20488;-58
2021/08/04 01:28:15;;;;;;;0.65;0.17;;;;;;;;;;5033356;28;20028;-59
2021/08/04 01:30:40;;;;;;;0.30;0.10;;;;;;;;;;5033715;28;20022;-58
2021/08/04 01:33:06;;;;;;;0.03;0.00;;;;;;;;;;5033408;28;20027;-58
2021/08/04 01:35:31;;;;;;;1.13;0.65;;;;;;;;;;5033599;28;20021;-58
2021/08/04 01:37:57;;;;;;;0.77;0.37;;;;;;;;;;5033486;28;20021;-58
2021/08/04 01:40:23;;;;;;;0.40;0.17;;;;;;;;;;5033144;28;20575;-58
2021/08/04 01:42:49;;;;;;;0.10;0.10;;;;;;;;;;5033363;28;20108;-59
2021/08/04 01:45:14;;;;;;;0.70;0.28;;;;;;;;;;5033186;28;20487;-59
2021/08/04 01:47:40;;;;;;;0.50;0.22;;;;;;;;;;5033186;28;20026;-59
2021/08/04 01:50:05;;;;;;;0.32;0.20;;;;;;;;;;5033168;28;20075;-59
2021/08/04 01:52:31;;;;;;;0.20;0.20;;;;;;;;;;5033320;28;20439;-58
2021/08/04 01:54:56;;;;;;;0.57;0.20;;;;;;;;;;5033503;28;20021;-58
2021/08/04 01:57:22;;;;;;;0.20;0.20;;;;;;;;;;5033267;28;20021;-58
2021/08/04 01:59:47;;;;;;;2.28;0.40;;;;;;;;;;5033060;28;20056;-58
2021/08/04 02:02:22;;;;;;;1.10;0.43;;;;;;;;;;5032928;28;20049;-58
2021/08/04 02:04:48;;;;;;;0.15;0.10;;;;;;;;;;5032773;28;20289;-59
2021/08/04 02:07:20;;;;;;;0.63;0.25;;;;;;;;;;5032925;28;20025;-58
2021/08/04 02:09:51;;;;;;;1.55;0.20;;;;;;;;;;5032978;28;20101;-58
2021/08/04 02:12:17;;;;;;;0.70;0.10;;;;;;;;;;5032795;28;20022;-59
2021/08/04 02:14:42;;;;;;;1.40;0.20;;;;;;;;;;5033008;28;20030;-58
2021/08/04 02:17:12;;;;;;;0.50;0.20;;;;;;;;;;5032781;28;20029;-59
2021/08/04 02:19:38;;;;;;;0.80;0.10;;;;;;;;;;5033017;28;20017;-59
2021/08/04 02:22:09;;;;;;;0.45;0.22;;;;;;;;;;5032912;28;20104;-58
2021/08/04 02:24:38;;;;;;;0.63;0.35;;;;;;;;;;5032013;28;20406;-58
2021/08/04 02:27:03;;;;;;;0.20;0.20;;;;;;;;;;5032691;28;20108;-59
2021/08/04 02:29:32;;;;;;;0.30;0.20;;;;;;;;;;5032253;28;20116;-59
2021/08/04 02:31:57;;;;;;;1.08;0.30;;;;;;;;;;5033109;28;20017;-59
2021/08/04 02:34:23;;;;;;;0.45;0.13;;;;;;;;;;5032883;28;20678;-59
2021/08/04 02:36:48;;;;;;;2.55;0.82;;;;;;;;;;5032999;28;20033;-59
2021/08/04 02:39:13;;;;;;;0.40;0.20;;;;;;;;;;5032612;28;20018;-59
2021/08/04 02:41:39;;;;;;;0.80;0.20;;;;;;;;;;5031704;28;20109;-58
2021/08/04 02:44:04;;;;;;;1.05;0.30;;;;;;;;;;5032698;28;20032;-58
2021/08/04 02:46:30;;;;;;;0.63;0.28;;;;;;;;;;5032541;28;20456;-58
2021/08/04 02:48:58;;;;;;;0.70;0.20;;;;;;;;;;5032656;28;20017;-58
2021/08/04 02:51:24;;;;;;;0.55;0.15;;;;;;;;;;5032705;28;20048;-59
2021/08/04 02:53:53;;;;;;;0.65;0.45;;;;;;;;;;5032584;28;20488;-59
2021/08/04 02:56:18;;;;;;;0.30;0.20;;;;;;;;;;5032543;28;20018;-59
2021/08/04 02:58:43;;;;;;;0.30;0.20;;;;;;;;;;5032658;28;20036;-59
2021/08/04 03:01:09;;;;;;;1.73;0.47;;;;;;;;;;5031299;28;20053;-59
2021/08/04 03:03:34;;;;;;;1.58;0.40;;;;;;;;;;5031591;28;20025;-59
2021/08/04 03:05:59;;;;;;;0.70;0.30;;;;;;;;;;5032287;28;20025;-58
2021/08/04 03:08:25;;;;;;;0.30;0.17;;;;;;;;;;5032410;28;20024;-58
2021/08/04 03:10:50;;;;;;;0.35;0.35;;;;;;;;;;5032566;28;20637;-58
2021/08/04 03:13:15;;;;;;;0.98;0.17;;;;;;;;;;5032164;28;20045;-58
2021/08/04 03:15:40;;;;;;;0.30;0.10;;;;;;;;;;5034189;28;20076;-59
2021/08/04 03:18:05;;;;;;;0.63;0.30;;;;;;;;;;5035885;28;20025;-59
2021/08/04 03:20:31;;;;;;;0.30;0.23;;;;;;;;;;5035899;28;20407;-59
2021/08/04 03:22:56;;;;;;;0.93;0.20;;;;;;;;;;5035997;28;20290;-59
2021/08/04 03:25:21;;;;;;;0.47;0.20;;;;;;;;;;5035753;28;20623;-59
2021/08/04 03:27:46;;;;;;;1.80;0.43;;;;;;;;;;5035705;28;20254;-59
2021/08/04 03:30:12;;;;;;;0.50;0.10;;;;;;;;;;5035838;28;20024;-59
2021/08/04 03:32:37;;;;;;;0.35;0.20;;;;;;;;;;5035730;28;20713;-58
2021/08/04 03:35:04;;;;;;;1.48;0.10;;;;;;;;;;5035831;28;20028;-58
2021/08/04 03:37:29;;;;;;;0.32;0.15;;;;;;;;;;5034927;28;20605;-58
2021/08/04 03:39:54;;;;;;;1.08;0.28;;;;;;;;;;5035602;28;20108;-58
2021/08/04 03:42:20;;;;;;;0.77;0.20;;;;;;;;;;5034741;28;20122;-58
2021/08/04 03:44:45;;;;;;;0.85;0.38;;;;;;;;;;5035694;28;20455;-59
2021/08/04 03:47:10;;;;;;;0.10;0.10;;;;;;;;;;5035465;28;20028;-59
2021/08/04 03:49:35;;;;;;;0.40;0.20;;;;;;;;;;5035791;28;20710;-59
2021/08/04 03:52:01;;;;;;;0.30;0.10;;;;;;;;;;5035563;28;20463;-59
2021/08/04 03:54:26;;;;;;;1.00;0.20;;;;;;;;;;5035116;28;20029;-59
2021/08/04 03:56:51;;;;;;;0.65;0.45;;;;;;;;;;5035390;28;20033;-58
2021/08/04 03:59:16;;;;;;;0.75;0.30;;;;;;;;;;5035136;28;20435;-58
2021/08/04 04:01:41;;;;;;;1.17;0.27;;;;;;;;;;5035350;28;20044;-58
2021/08/04 04:04:07;;;;;;;1.48;0.13;;;;;;;;;;5035210;28;20254;-58
2021/08/04 04:06:32;;;;;;;0.93;0.20;;;;;;;;;;5034692;28;20039;-59
2021/08/04 04:08:57;;;;;;;0.57;0.10;;;;;;;;;;5035313;28;20025;-58
2021/08/04 04:11:22;;;;;;;0.80;0.20;;;;;;;;;;5034940;28;20021;-59
2021/08/04 04:13:47;;;;;;;2.20;0.25;;;;;;;;;;5035056;28;20109;-59
2021/08/04 04:16:13;;;;;;;0.20;0.13;;;;;;;;;;5034748;28;20013;-59
2021/08/04 04:18:38;;;;;;;0.40;0.20;;;;;;;;;;5034818;28;20755;-58
2021/08/04 04:21:04;;;;;;;0.22;0.20;;;;;;;;;;5034628;28;20255;-58
2021/08/04 04:23:29;;;;;;;1.27;0.43;;;;;;;;;;5034675;28;20383;-58
2021/08/04 04:25:55;;;;;;;0.95;0.20;;;;;;;;;;5034511;28;20025;-59
2021/08/04 04:28:20;;;;;;;1.45;0.40;;;;;;;;;;5034515;28;20433;-58
2021/08/04 04:30:45;;;;;;;0.80;0.30;;;;;;;;;;5034716;28;20022;-58
2021/08/04 04:33:10;;;;;;;1.45;0.30;;;;;;;;;;5034698;28;20100;-58
2021/08/04 04:35:36;;;;;;;0.60;0.25;;;;;;;;;;5034369;28;20049;-59
2021/08/04 04:38:01;;;;;;;0.32;0.10;;;;;;;;;;5034695;28;20372;-59
2021/08/04 04:40:26;;;;;;;0.88;0.30;;;;;;;;;;5034256;28;20060;-59
2021/08/04 04:42:51;;;;;;;0.52;0.20;;;;;;;;;;5034485;28;20044;-59
2021/08/04 04:45:16;;;;;;;0.45;0.20;;;;;;;;;;5034302;28;20384;-58
2021/08/04 04:47:42;;;;;;;0.20;0.20;;;;;;;;;;5034218;28;20480;-58
2021/08/04 04:50:07;;;;;;;1.00;0.20;;;;;;;;;;5034125;28;20100;-58
2021/08/04 04:52:38;;;;;;;1.17;0.28;;;;;;;;;;5034265;28;20723;-59
2021/08/04 04:55:03;;;;;;;1.00;0.20;;;;;;;;;;5034127;28;20056;-59
2021/08/04 04:57:28;;;;;;;0.52;0.20;;;;;;;;;;5034164;28;20064;-59
2021/08/04 04:59:54;;;;;;;2.42;0.55;;;;;;;;;;5033846;28;20121;-59
2021/08/04 05:02:19;;;;;;;1.00;0.52;;;;;;;;;;5034027;28;20044;-58
2021/08/04 05:04:44;;;;;;;0.10;0.10;;;;;;;;;;5033813;28;20034;-58
2021/08/04 05:07:09;;;;;;;0.45;0.28;;;;;;;;;;5033774;28;20271;-58
2021/08/04 05:09:34;;;;;;;0.77;0.10;;;;;;;;;;5033917;28;20427;-59
2021/08/04 05:12:00;;;;;;;0.52;0.10;;;;;;;;;;5033778;28;20258;-58
2021/08/04 05:14:25;;;;;;;1.67;0.20;;;;;;;;;;5033729;28;20025;-58
2021/08/04 05:16:50;;;;;;;0.40;0.30;;;;;;;;;;5033649;28;20417;-59
2021/08/04 05:19:15;;;;;;;0.50;0.17;;;;;;;;;;5033542;28;20243;-58
2021/08/04 05:21:40;;;;;;;0.30;0.20;;;;;;;;;;5032289;28;20022;-59
2021/08/04 05:24:06;;;;;;;0.98;0.30;;;;;;;;;;5032501;28;20758;-58
2021/08/04 05:26:31;;;;;;;0.52;0.40;;;;;;;;;;5033705;28;20112;-59
2021/08/04 05:28:57;;;;;;;0.75;0.20;;;;;;;;;;5033195;28;20096;-58
2021/08/04 05:31:23;;;;;;;2.08;0.28;;;;;;;;;;5033598;28;20021;-58
2021/08/04 05:33:48;;;;;;;0.63;0.32;;;;;;;;;;5033509;28;20413;-58
2021/08/04 05:36:13;;;;;;;0.60;0.40;;;;;;;;;;5033238;28;20079;-58
2021/08/04 05:38:38;;;;;;;0.65;0.20;;;;;;;;;;5032960;28;20025;-58
2021/08/04 05:41:03;;;;;;;1.10;0.30;;;;;;;;;;5033483;28;20103;-58
2021/08/04 05:43:30;;;;;;;0.80;0.20;;;;;;;;;;5033235;28;20250;-58
2021/08/04 05:45:55;;;;;;;0.70;0.15;;;;;;;;;;5031907;28;20445;-58
2021/08/04 05:48:20;;;;;;;0.35;0.25;;;;;;;;;;5033203;28;20053;-59
2021/08/04 05:50:45;;;;;;;0.75;0.20;;;;;;;;;;5033125;28;20060;-59
2021/08/04 05:53:11;;;;;;;1.00;0.25;;;;;;;;;;5032918;28;20053;-59
2021/08/04 05:55:37;;;;;;;2.55;0.40;;;;;;;;;;5032443;28;20440;-58
2021/08/04 05:58:02;;;;;;;0.98;0.30;;;;;;;;;;5032589;28;20028;-58
2021/08/04 06:00:27;;;;;;;0.40;0.10;;;;;;;;;;5032872;28;20057;-58
2021/08/04 06:02:52;;;;;;;0.73;0.20;;;;;;;;;;5033085;28;20068;-58
2021/08/04 06:05:18;;;;;;;0.10;0.10;;;;;;;;;;5032928;28;20514;-58
2021/08/04 06:07:43;;;;;;;0.98;0.20;;;;;;;;;;5032972;28;20247;-58
2021/08/04 06:10:08;;;;;;;3.03;0.65;;;;;;;;;;5033138;28;20041;-58
2021/08/04 06:12:34;;;;;;;1.13;0.10;;;;;;;;;;5032767;28;20105;-58
2021/08/04 06:14:59;;;;;;;1.00;0.30;;;;;;;;;;5023757;28;20051;-59
2021/08/04 06:17:24;;;;;;;0.25;0.10;;;;;;;;;;5017118;28;20278;-59
2021/08/04 06:19:49;;;;;;;1.05;0.30;;;;;;;;;;5013020;28;20042;-59
2021/08/04 06:22:15;;;;;;;0.98;0.15;;;;;;;;;;5014303;28;20022;-58
2021/08/04 06:24:40;;;;;;;1.67;0.73;;;;;;;;;;5012812;28;20084;-58
2021/08/04 06:27:05;;;;;;;2.47;0.35;;;;;;;;;;5026417;28;20391;-58
2021/08/04 06:29:30;;;;;;;0.65;0.20;;;;;;;;;;5014030;28;20172;-58
2021/08/04 06:31:56;;;;;;;1.73;0.43;;;;;;;;;;5013645;28;20022;-58
2021/08/04 06:34:21;;;;;;;1.10;0.52;;;;;;;;;;5012966;28;20038;-59
2021/08/04 06:36:46;;;;;;;0.55;0.20;;;;;;;;;;5023508;28;20468;-58
2021/08/04 06:39:11;;;;;;;0.95;0.32;;;;;;;;;;5031243;28;20488;-58
2021/08/04 06:41:37;;;;;;;1.15;0.30;;;;;;;;;;5027805;28;20094;-59
2021/08/04 06:44:02;;;;;;;1.63;0.38;;;;;;;;;;5026602;28;20014;-58
2021/08/04 06:46:34;;;;;;;0.50;0.32;;;;;;;;;;5032681;28;20020;-58
2021/08/04 06:49:00;;;;;;;0.90;0.32;;;;;;;;;;5031447;28;20025;-60
2021/08/04 06:51:25;;;;;;;1.38;0.30;;;;;;;;;;5024247;28;20014;-59
2021/08/04 06:53:51;;;;;;;1.67;0.40;;;;;;;;;;5048819;28;20053;-60
2021/08/04 06:56:16;;;;;;;1.67;0.30;;;;;;;;;;5025276;28;20481;-60
2021/08/04 06:58:41;;;;;;;0.60;0.45;;;;;;;;;;5018855;28;20270;-60
2021/08/04 07:01:06;;;;;;;1.17;0.20;;;;;;;;;;5056046;28;20072;-60
2021/08/04 07:03:31;;;;;;;0.40;0.10;;;;;;;;;;5039832;28;20096;-59
2021/08/04 07:05:57;;;;;;;0.57;0.30;;;;;;;;;;5029194;28;20354;-59
2021/08/04 07:08:22;;;;;;;1.80;0.30;;;;;;;;;;5030061;28;20466;-58
2021/08/04 07:10:48;;;;;;;1.00;0.53;;;;;;;;;;5021216;28;20073;-59
2021/08/04 07:13:13;;;;;;;1.63;0.47;;;;;;;;;;5018843;28;20286;-59
2021/08/04 07:15:38;;;;;;;0.30;0.28;;;;;;;;;;5028962;28;20025;-59
2021/08/04 07:18:09;;;;;;;1.48;0.40;;;;;;;;;;5032412;28;20103;-60
2021/08/04 07:20:34;;;;;;;1.75;0.43;;;;;;;;;;5017153;28;20504;-59
2021/08/04 07:22:59;;;;;;;1.17;0.40;;;;;;;;;;5022130;28;20033;-60
2021/08/04 07:25:24;;;;;;;1.35;0.50;;;;;;;;;;5037575;28;20033;-60
2021/08/04 07:27:50;;;;;;;1.25;0.60;;;;;;;;;;5045000;28;20067;-60
2021/08/04 07:30:15;;;;;;;2.20;0.35;;;;;;;;;;5026214;28;20044;-60
2021/08/04 07:32:40;;;;;;;1.30;0.47;;;;;;;;;;5026738;28;20018;-62
2021/08/04 07:35:06;;;;;;;0.52;0.25;;;;;;;;;;5022333;28;20437;-60
2021/08/04 07:37:32;;;;;;;0.70;0.32;;;;;;;;;;5028784;28;20026;-60
2021/08/04 07:39:57;;;;;;;0.73;0.40;;;;;;;;;;5037801;28;20039;-60
2021/08/04 07:42:24;;;;;;;1.70;0.50;;;;;;;;;;5035400;28;20702;-61
2021/08/04 07:44:49;;;;;;;0.30;0.20;;;;;;;;;;5050026;28;20031;-59
2021/08/04 07:47:14;;;;;;;0.88;0.63;;;;;;;;;;5048348;28;20399;-59
2021/08/04 07:49:40;;;;;;;0.70;0.30;;;;;;;;;;5032603;28;20017;-59
2021/08/04 07:52:05;;;;;;;1.75;0.40;;;;;;;;;;5028934;28;20033;-59
2021/08/04 07:54:30;;;;;;;0.63;0.20;;;;;;;;;;5033696;28;20021;-60
2021/08/04 07:56:56;;;;;;;0.52;0.30;;;;;;;;;;5034604;28;20044;-61
2021/08/04 07:59:21;;;;;;;1.13;0.30;;;;;;;;;;5033068;28;20041;-61
2021/08/04 08:01:46;;;;;;;0.57;0.20;;;;;;;;;;5033698;28;20031;-60
2021/08/04 08:04:11;;;;;;;0.83;0.40;;;;;;;;;;5034440;28;20263;-60
2021/08/04 08:06:36;;;;;;;1.98;0.30;;;;;;;;;;5022014;28;20311;-60
2021/08/04 08:09:02;;;;;;;0.28;0.25;;;;;;;;;;5029464;28;20455;-59
2021/08/04 08:11:27;;;;;;;1.02;0.47;;;;;;;;;;5034999;28;20027;-60
2021/08/04 08:13:52;;;;;;;1.92;0.30;;;;;;;;;;5028345;28;20032;-60
2021/08/04 08:16:18;;;;;;;1.40;0.25;;;;;;;;;;5027924;28;20037;-60
2021/08/04 08:18:43;;;;;;;0.55;0.25;;;;;;;;;;5034956;28;20099;-59
2021/08/04 08:21:08;;;;;;;1.30;0.40;;;;;;;;;;5030872;28;20017;-61
2021/08/04 08:23:34;;;;;;;1.17;0.30;;;;;;;;;;5036631;28;20759;-62
2021/08/04 08:25:59;;;;;;;1.10;0.40;;;;;;;;;;5038942;28;20021;-62
2021/08/04 08:28:24;;;;;;;0.60;0.28;;;;;;;;;;5028541;28;20105;-62
2021/08/04 08:30:49;;;;;;;0.35;0.20;;;;;;;;;;5023786;28;20041;-61
2021/08/04 08:33:15;;;;;;;1.65;0.10;;;;;;;;;;5028897;28;20060;-61
2021/08/04 08:35:40;;;;;;;3.30;0.50;;;;;;;;;;5025133;28;20510;-61
2021/08/04 08:38:05;;;;;;;1.52;0.52;;;;;;;;;;5034210;28;20035;-62
2021/08/04 08:40:31;;;;;;;1.73;0.60;;;;;;;;;;5028612;28;20025;-62
2021/08/04 08:42:56;;;;;;;1.70;0.50;;;;;;;;;;5030271;28;20527;-62
2021/08/04 08:45:22;;;;;;;2.42;0.43;;;;;;;;;;5033042;28;20096;-62
2021/08/04 08:47:49;;;;;;;0.68;0.30;;;;;;;;;;5014711;28;20346;-62
2021/08/04 08:50:15;;;;;;;2.33;0.30;;;;;;;;;;5025841;28;20013;-62
2021/08/04 08:52:41;;;;;;;0.52;0.17;;;;;;;;;;5045317;28;20021;-61
2021/08/04 08:55:07;;;;;;;0.55;0.30;;;;;;;;;;5053992;28;20028;-61
2021/08/04 08:57:32;;;;;;;0.60;0.30;;;;;;;;;;5033287;28;20423;-62
2021/08/04 08:59:57;;;;;;;1.45;0.40;;;;;;;;;;5031424;28;20041;-61
2021/08/04 09:02:26;;;;;;;0.55;0.52;;;;;;;;;;5025010;28;20064;-61
2021/08/04 09:04:57;;;;;;;1.92;0.32;;;;;;;;;;5021672;28;20036;-61
2021/08/04 09:07:30;;;;;;;1.00;0.43;;;;;;;;;;5031335;28;20031;-60
2021/08/04 09:09:55;;;;;;;1.05;0.35;;;;;;;;;;5053737;28;20025;-60
2021/08/04 09:12:21;;;;;;;0.73;0.30;;;;;;;;;;5035677;28;20038;-63
2021/08/04 09:14:46;;;;;;;0.80;0.38;;;;;;;;;;5019469;28;20393;-63
2021/08/04 09:17:15;;;;;;;1.03;0.30;;;;;;;;;;5016849;28;20454;-62
2021/08/04 09:19:42;;;;;;;0.57;0.30;;;;;;;;;;5025081;28;20630;-65
2021/08/04 09:22:12;;;;;;;1.77;0.50;;;;;;;;;;5029492;28;20030;-63
2021/08/04 09:24:56;;;;;;;1.73;0.60;;;;;;;;;;5026086;28;20056;-63
2021/08/04 09:27:41;;;;;;;0.45;0.25;;;;;;;;;;5025083;28;20029;-63
2021/08/04 09:30:07;;;;;;;2.08;0.50;;;;;;;;;;5026755;28;20446;-64
2021/08/04 09:32:33;;;;;;;1.40;0.50;;;;;;;;;;5031588;28;20013;-64
2021/08/04 09:35:09;;;;;;;1.35;0.30;;;;;;;;;;5026167;28;20063;-66
2021/08/04 09:37:34;;;;;;;0.63;0.38;;;;;;;;;;5020953;28;20036;-63
2021/08/04 09:40:02;;;;;;;0.97;0.20;;;;;;;;;;5053229;28;20351;-62
2021/08/04 09:42:48;;;;;;;2.08;0.35;;;;;;;;;;5052945;28;20258;-62
2021/08/04 09:45:15;;;;;;;1.55;0.25;;;;;;;;;;5053068;28;20040;-62
2021/08/04 09:47:59;;;;;;;1.42;0.50;;;;;;;;;;5023379;28;20037;-63
2021/08/04 09:50:24;;;;;;;0.97;0.40;;;;;;;;;;5039724;28;20025;-63
2021/08/04 09:52:54;;;;;;;0.30;0.30;;;;;;;;;;5052477;28;20070;-64
2021/08/04 09:55:19;;;;;;;0.95;0.50;;;;;;;;;;5038567;28;20376;-61
2021/08/04 09:57:46;;;;;;;1.27;0.30;;;;;;;;;;5031790;28;20013;-61
2021/08/04 10:00:12;;;;;;;5.10;0.60;;;;;;;;;;5032434;28;20121;-61
2021/08/04 10:02:38;;;;;;;1.00;0.20;;;;;;;;;;5031411;28;20598;-62
2021/08/04 10:05:16;;;;;;;1.00;0.22;;;;;;;;;;5032607;28;20056;-61
2021/08/04 10:08:01;;;;;;;0.30;0.20;;;;;;;;;;5029978;28;20530;-60
2021/08/04 10:10:26;;;;;;;1.52;0.50;;;;;;;;;;5031739;28;20031;-61
2021/08/04 10:12:54;;;;;;;0.50;0.30;;;;;;;;;;5032348;28;20021;-62
2021/08/04 10:15:19;;;;;;;1.30;0.20;;;;;;;;;;5032070;28;20029;-61
2021/08/04 10:17:44;;;;;;;0.73;0.20;;;;;;;;;;5031988;28;20104;-61
2021/08/04 10:20:10;;;;;;;0.32;0.25;;;;;;;;;;5032249;28;20017;-62
2021/08/04 10:22:36;;;;;;;1.63;0.30;;;;;;;;;;5032841;28;20120;-62
2021/08/04 10:25:02;;;;;;;0.28;0.10;;;;;;;;;;5035691;28;20017;-61
2021/08/04 10:27:28;;;;;;;0.68;0.20;;;;;;;;;;5023434;28;20030;-61
2021/08/04 10:29:53;;;;;;;0.22;0.20;;;;;;;;;;5017092;28;20148;-61
2021/08/04 10:32:18;;;;;;;1.33;0.28;;;;;;;;;;5017000;28;20046;-61
2021/08/04 10:34:45;;;;;;;0.55;0.30;;;;;;;;;;5017176;28;20018;-62
2021/08/04 10:37:10;;;;;;;1.90;0.65;;;;;;;;;;5017536;28;20049;-61
2021/08/04 10:39:36;;;;;;;1.25;0.30;;;;;;;;;;5017242;28;20050;-61
2021/08/04 10:42:05;;;;;;;1.08;0.35;;;;;;;;;;5016996;28;20029;-61
2021/08/04 10:44:31;;;;;;;0.77;0.20;;;;;;;;;;5026727;28;20029;-62
2021/08/04 10:46:56;;;;;;;2.80;0.60;;;;;;;;;;5036703;28;20021;-62
2021/08/04 10:49:23;;;;;;;1.45;0.40;;;;;;;;;;5036660;28;20020;-61
2021/08/04 10:51:51;;;;;;;0.95;0.30;;;;;;;;;;5036700;28;20016;-61
2021/08/04 10:54:17;;;;;;;1.95;0.30;;;;;;;;;;5036510;28;20100;-62
2021/08/04 10:56:42;;;;;;;0.80;0.20;;;;;;;;;;5036045;28;20093;-61
2021/08/04 10:59:07;;;;;;;1.40;0.30;;;;;;;;;;5036180;28;20029;-61
2021/08/04 11:01:33;;;;;;;0.55;0.20;;;;;;;;;;5036402;28;20262;-61
2021/08/04 11:03:58;;;;;;;1.80;0.50;;;;;;;;;;5035926;28;20021;-61
2021/08/04 11:06:23;;;;;;;0.52;0.35;;;;;;;;;;5021197;28;20068;-61
2021/08/04 11:09:08;;;;;;;0.85;0.32;;;;;;;;;;5027717;28;20022;-62
2021/08/04 11:11:50;;;;;;;0.30;0.20;;;;;;;;;;5042795;28;20021;-62
2021/08/04 11:14:34;;;;;;;0.85;0.30;;;;;;;;;;5034675;28;20021;-61
2021/08/04 11:17:00;;;;;;;1.58;0.40;;;;;;;;;;5023247;28;20030;-60
2021/08/04 11:19:30;;;;;;;0.93;0.35;;;;;;;;;;5016492;28;20026;-61
2021/08/04 11:22:12;;;;;;;1.90;0.40;;;;;;;;;;5016482;28;20025;-61
2021/08/04 11:24:53;;;;;;;1.23;0.45;;;;;;;;;;5016295;28;20081;-61
2021/08/04 11:27:18;;;;;;;2.05;0.40;;;;;;;;;;5026392;28;20021;-62
2021/08/04 11:29:44;;;;;;;0.80;0.22;;;;;;;;;;5043605;28;20372;-61
2021/08/04 11:32:20;;;;;;;1.48;0.30;;;;;;;;;;5035678;28;20071;-59
2021/08/04 11:34:45;;;;;;;1.10;0.20;;;;;;;;;;5027545;28;20049;-60
2021/08/04 11:37:10;;;;;;;1.65;0.30;;;;;;;;;;5015396;28;20064;-61
2021/08/04 11:39:35;;;;;;;0.87;0.37;;;;;;;;;;5019234;28;20025;-61
2021/08/04 11:42:05;;;;;;;0.87;0.30;;;;;;;;;;5025556;28;20693;-61
2021/08/04 11:44:31;;;;;;;1.73;0.30;;;;;;;;;;5030142;28;20258;-61
2021/08/04 11:46:57;;;;;;;0.25;0.10;;;;;;;;;;5032146;28;20399;-62
2021/08/04 11:49:31;;;;;;;4.40;0.55;;;;;;;;;;5035232;28;20010;-61
2021/08/04 11:51:57;;;;;;;2.00;0.40;;;;;;;;;;5024549;28;20049;-61
2021/08/04 11:54:28;;;;;;;0.63;0.20;;;;;;;;;;5032798;28;20597;-61
2021/08/04 11:56:53;;;;;;;2.10;0.32;;;;;;;;;;5029874;28;20055;-62
2021/08/04 11:59:18;;;;;;;1.90;0.47;;;;;;;;;;5033510;28;20672;-61
2021/08/04 12:02:02;;;;;;;1.38;0.40;;;;;;;;;;5020118;28;20085;-62
2021/08/04 12:04:29;;;;;;;0.50;0.50;;;;;;;;;;5030256;28;20021;-61
2021/08/04 12:06:56;;;;;;;0.65;0.50;;;;;;;;;;5031948;28;20033;-64
2021/08/04 12:09:26;;;;;;;1.02;0.10;;;;;;;;;;5032705;28;20041;-60
2021/08/04 12:11:51;;;;;;;0.60;0.20;;;;;;;;;;5022542;28;20022;-61
2021/08/04 12:14:19;;;;;;;0.30;0.15;;;;;;;;;;5031221;28;20025;-64
2021/08/04 12:16:45;;;;;;;0.38;0.20;;;;;;;;;;5033888;28;20025;-63
2021/08/04 12:19:11;;;;;;;1.20;0.30;;;;;;;;;;5026099;28;20029;-62
2021/08/04 12:21:36;;;;;;;1.50;0.30;;;;;;;;;;5024792;28;20074;-61
2021/08/04 12:24:02;;;;;;;0.73;0.45;;;;;;;;;;5015225;28;20377;-62
2021/08/04 12:26:27;;;;;;;1.65;0.20;;;;;;;;;;5029581;28;20029;-66
2021/08/04 12:28:52;;;;;;;1.40;0.30;;;;;;;;;;5024904;28;20029;-66
2021/08/04 12:31:17;;;;;;;1.17;0.20;;;;;;;;;;5034691;28;20644;-67
2021/08/04 12:33:56;;;;;;;0.68;0.38;;;;;;;;;;5033455;28;20013;-67
2021/08/04 12:36:34;;;;;;;0.20;0.10;;;;;;;;;;5027918;28;20013;-65
2021/08/04 12:39:00;;;;;;;2.25;0.40;;;;;;;;;;5022249;28;20045;-65
2021/08/04 12:41:26;;;;;;;0.20;0.20;;;;;;;;;;5028366;28;20722;-65
2021/08/04 12:43:55;;;;;;;1.35;0.28;;;;;;;;;;5033035;28;20052;-64
2021/08/04 12:46:27;;;;;;;0.68;0.25;;;;;;;;;;5035909;28;20091;-65
2021/08/04 12:48:53;;;;;;;0.57;0.20;;;;;;;;;;5041544;28;20036;-65
2021/08/04 12:51:22;;;;;;;1.70;0.32;;;;;;;;;;5013974;28;20018;-65
2021/08/04 12:53:55;;;;;;;0.85;0.30;;;;;;;;;;5014118;28;20096;-66
2021/08/04 12:56:28;;;;;;;1.13;0.45;;;;;;;;;;5013894;28;20021;-66
2021/08/04 12:58:54;;;;;;;0.60;0.22;;;;;;;;;;5022767;28;20022;-67
2021/08/04 13:01:21;;;;;;;1.38;0.20;;;;;;;;;;5033007;28;20050;-65
2021/08/04 13:03:46;;;;;;;0.68;0.20;;;;;;;;;;5034339;28;20018;-65
2021/08/04 13:06:11;;;;;;;0.80;0.47;;;;;;;;;;5045859;28;20101;-65
2021/08/04 13:08:37;;;;;;;0.67;0.27;;;;;;;;;;5033951;28;20356;-65
2021/08/04 13:11:02;;;;;;;1.67;0.40;;;;;;;;;;5022618;28;20326;-65
2021/08/04 13:13:28;;;;;;;0.85;0.13;;;;;;;;;;5023680;28;20018;-65
2021/08/04 13:15:54;;;;;;;3.22;0.45;;;;;;;;;;5042309;28;20029;-65
2021/08/04 13:18:20;;;;;;;0.45;0.10;;;;;;;;;;5053798;28;20066;-65
2021/08/04 13:20:45;;;;;;;0.82;0.47;;;;;;;;;;5035273;28;20029;-65
2021/08/04 13:23:12;;;;;;;2.10;0.50;;;;;;;;;;5039092;28;20032;-66
2021/08/04 13:25:46;;;;;;;0.20;0.20;;;;;;;;;;5019942;28;20529;-65
2021/08/04 13:28:16;;;;;;;2.28;0.30;;;;;;;;;;5016398;28;20032;-65
2021/08/04 13:30:42;;;;;;;1.23;0.30;;;;;;;;;;5022350;28;20021;-65
2021/08/04 13:33:08;;;;;;;0.55;0.40;;;;;;;;;;5013968;28;20047;-65
2021/08/04 13:35:35;;;;;;;2.05;0.47;;;;;;;;;;5013904;28;20477;-65
2021/08/04 13:38:00;;;;;;;2.63;0.57;;;;;;;;;;5013852;28;20022;-65
2021/08/04 13:40:25;;;;;;;4.35;0.63;;;;;;;;;;5017682;28;20373;-65
2021/08/04 13:42:51;;;;;;;1.20;0.32;;;;;;;;;;5014713;28;20032;-65
2021/08/04 13:45:18;;;;;;;1.60;0.60;;;;;;;;;;5013601;28;20097;-65
2021/08/04 13:47:44;;;;;;;1.25;0.17;;;;;;;;;;5020698;28;20018;-65
2021/08/04 13:50:10;;;;;;;3.00;0.63;;;;;;;;;;5025372;28;20016;-66
2021/08/04 13:52:35;;;;;;;0.45;0.25;;;;;;;;;;5014657;28;20051;-66
2021/08/04 13:55:01;;;;;;;1.60;0.40;;;;;;;;;;5015329;28;20010;-66
2021/08/04 13:57:26;;;;;;;0.80;0.35;;;;;;;;;;5036624;28;20064;-65
2021/08/04 13:59:52;;;;;;;2.07;0.30;;;;;;;;;;5046158;28;20041;-64
2021/08/04 14:02:17;;;;;;;0.90;0.33;;;;;;;;;;5053049;28;20659;-65
2021/08/04 14:04:42;;;;;;;1.85;0.50;;;;;;;;;;5053138;28;20032;-65
2021/08/04 14:07:07;;;;;;;1.13;0.35;;;;;;;;;;5052454;28;20032;-65
2021/08/04 14:09:33;;;;;;;1.35;0.30;;;;;;;;;;5035303;28;20025;-65
2021/08/04 14:11:58;;;;;;;0.52;0.20;;;;;;;;;;5013540;28;20021;-64
2021/08/04 14:14:23;;;;;;;0.47;0.22;;;;;;;;;;5013305;28;20030;-65
2021/08/04 14:16:49;;;;;;;0.63;0.35;;;;;;;;;;5039718;28;20021;-65
2021/08/04 14:19:15;;;;;;;0.77;0.30;;;;;;;;;;5021732;28;20522;-64
2021/08/04 14:21:42;;;;;;;1.05;0.25;;;;;;;;;;5032891;28;20108;-64
2021/08/04 14:24:07;;;;;;;0.68;0.20;;;;;;;;;;5032073;28;20021;-64
2021/08/04 14:26:32;;;;;;;1.85;0.15;;;;;;;;;;5031607;28;20017;-65
2021/08/04 14:28:58;;;;;;;0.40;0.17;;;;;;;;;;5031916;28;20124;-65
2021/08/04 14:31:23;;;;;;;0.75;0.20;;;;;;;;;;5032479;28;20026;-65
2021/08/04 14:33:48;;;;;;;0.88;0.20;;;;;;;;;;5032387;28;20028;-66
2021/08/04 14:36:13;;;;;;;0.17;0.13;;;;;;;;;;5032049;28;20022;-66
2021/08/04 14:38:38;;;;;;;0.50;0.35;;;;;;;;;;5033089;28;20025;-65